Airfield :
LOGIN :

Register | Disclaimer

   EN    FR    IT 

 










Legend :    VFR   Marginal VFR   IFR   Intensive IFR   Very Intensive IFR
Visi :
Ceiling :
>= 8 km
>= 3000ft
5 to 8 km
1000 to 3000 ft
1500m to 5 km
500 to 1000 ft
800 to 1500m
200 to 500 ft
< 800m
< 200 ft
Symbols :   Thunderstorms  Fog  Heavy snow  Heavy precipitations  Wind > 20 kt
SIGMETs :     Misc.  Thunderstorms  Icing  Turbulence  Mountain Waves  Volcanic Ashes






- Airport Elevation : 177 ft
- IATA code : AYT


LTAI - Antalya

CURRENT METAR :
  • 200050Z 32009KT CAVOK 01/M11 Q1027 NOSIG RMK RWY18C 35013KT RWY36R 35008KT RWY18L 35010KT

EXPIRED METARs :
  • 200020Z 35015KT CAVOK 01/M11 Q1027 NOSIG RMK RWY18C 35012KT RWY36R 35013KT RWY18L 35012KT
  • 192350Z 33012KT CAVOK 02/M12 Q1027 NOSIG RMK RWY18C 34017KT RWY36R 35013KT RWY18L 35011KT
  • 192320Z 33017KT CAVOK 03/M12 Q1027 NOSIG RMK RWY18C 33019KT RWY36R 33014KT RWY18L 34018KT
  • 192250Z 33014KT CAVOK 02/M12 Q1027 NOSIG RMK RWY18C 33018KT RWY36R 32013KT RWY18L 34016KT
  • 192220Z 33012KT CAVOK 02/M11 Q1028 NOSIG RMK RWY18C 32016KT RWY36R 32014KT RWY18L 33014KT
  • 192150Z 34016KT CAVOK 02/M12 Q1027 NOSIG RMK RWY18C 32010KT RWY36R 33014KT RWY18L 33010KT

TAF TAF LTAI
Valid from the 20 at 00:00 until the 21 at 00:00 UTC


192240Z 2000/2024 34015G25KT CAVOK
BECMG 2010/2014 34007KT



MET'MAP, your aeronautical weather chart ! - Copyright ORBIFLY December 2007 - Disclaimer

ORBIFLY MET'MAP TEAM :

Programming & Development : Alexandra Zaïnal
Concept & original design : Baudouin d'Aumeries
Assistance for programming : Marc-Olivier Méhu
Technical & hardware support : Manuel Goepfert

Contact : metmap@orbifly.com




SOURCES & CREDITS :

   NOAA